Latest Coastal Weather Observations for Noarlunga

IDS60701

Issued at 3:41 am CST Wednesday 2 September 2015 (issued every 10 minutes, with the page automatically refreshed every 10 minutes)

About coastal observations | Map of coastal stations | Coastal observations for SA | Marine services | Other Formats
Station Details ID: 023885 Name: NOARLUNGA Lat: -35.16 Lon: 138.51 Height: 55.0 m
Data from the previous 72 hours. | See also: Recent months at Noarlunga
Date/Time
CST
Temp

°C
Wind Pressure Rain
since 9am
mm
Weather Cloud Vis
km
Sea
Height
m
Swell
Dir
 
Speed
knots
Gust
knots
hPa Trend Height
m
Period
s
Dir
02/03:30am 10.7 NNE 12 19 - - 7.4 - - - - - - -
02/03:00am 10.9 N 12 19 - - 6.8 Rain - - - - - -
02/02:30am 11.2 N 14 20 - - 6.6 - - - - - - -
02/02:00am 11.1 NNE 15 24 - - 6.6 - - - - - - -
02/01:30am 10.7 NNE 12 17 - - 6.6 - - - - - - -
02/01:00am 10.8 NNE 13 19 - - 6.0 - - - - - - -
02/12:30am 10.9 NNE 12 19 - - 5.4 - - - - - - -
02/12:00am 11.3 N 13 24 - - 3.8 Rain - - - - - -
 
Date/Time
CST
Temp

°C
Wind Pressure Rain
since 9am
mm
Weather Cloud Vis
km
Sea
Height
m
Swell
Dir
 
Speed
knots
Gust
knots
hPa Trend Height
m
Period
s
Dir
01/11:30pm 12.1 N 12 20 - - 1.8 - - - - - - -
01/11:00pm 13.2 N 14 23 - - 0.4 - - - - - - -
01/10:38pm 16.2 N 17 32 - - 0.0 - - - - - - -
01/10:30pm 16.2 NNE 14 23 - - 0.0 - - - - - - -
01/10:00pm 16.6 NNE 12 19 - - 0.0 - - - - - - -
01/09:30pm 16.6 NNE 11 16 - - 0.0 - - - - - - -
01/09:00pm 16.7 NNE 10 15 - - 0.0 - - - - - - -
01/08:30pm 16.6 NNE 6 12 - - 0.0 - - - - - - -
01/08:00pm 15.9 NE 3 7 - - 0.0 - - - - - - -
01/07:30pm 16.4 NE 3 4 - - 0.0 - - - - - - -
01/07:00pm 16.6 NE 4 8 - - 0.0 - - - - - - -
01/06:30pm 16.9 NE 5 8 - - 0.0 - - - - - - -
01/06:00pm 16.8 NE 5 7 - - 0.0 - - - - - - -
01/05:30pm 16.8 NNE 6 9 - - 0.0 - - - - - - -
01/05:00pm 17.0 N 8 13 - - 0.0 - - - - - - -
01/04:30pm 17.0 N 9 16 - - 0.0 - - - - - - -
01/04:00pm 17.8 N 13 19 - - 0.0 - - - - - - -
01/03:30pm 17.2 N 6 9 - - 0.0 - - - - - - -
01/03:00pm 17.7 N 11 16 - - 0.0 - - - - - - -
01/02:30pm 16.6 N 15 24 - - 0.0 - - - - - - -
01/02:00pm 17.9 N 13 22 - - 0.0 - - - - - - -
01/01:30pm 19.4 N 12 18 - - 0.0 - - - - - - -
01/01:00pm 19.5 N 11 18 - - 0.0 - - - - - - -
01/12:30pm 21.5 N 11 17 - - 0.0 - - - - - - -
01/12:00pm 19.1 N 14 20 - - 0.0 - - - - - - -
01/11:30am 19.8 NNE 12 17 - - 0.0 - - - - - - -
01/11:00am 18.6 N 13 23 - - 0.0 - - - - - - -
01/10:30am 18.0 NNE 11 17 - - 0.0 - - - - - - -
01/10:00am 18.1 N 10 21 - - 0.0 - - - - - - -
01/09:30am 17.1 NNE 12 15 - - 0.0 - - - - - - -
01/09:00am 17.5 NNE 7 11 - - 0.2 - - - - - - -
01/08:30am 15.6 NE 4 7 - - 0.2 - - - - - - -
01/08:00am 14.4 ENE 5 8 - - 0.2 - - - - - - -
01/07:30am 13.3 NE 7 10 - - 0.2 - - - - - - -
01/07:00am 13.1 NE 5 8 - - 0.2 - - - - - - -
01/06:30am 13.1 NNE 6 8 - - 0.2 - - - - - - -
01/06:00am 14.9 N 8 12 - - 0.0 - - - - - - -
01/05:30am 15.1 NNE 7 11 - - 0.0 - - - - - - -
01/05:00am 15.1 NNE 9 15 - - 0.0 - - - - - - -
01/04:30am 15.2 NNE 9 13 - - 0.0 - - - - - - -
01/04:00am 15.4 NNE 9 13 - - 0.0 - - - - - - -
01/03:30am 15.2 NNE 9 12 - - 0.0 - - - - - - -
01/03:00am 14.7 NNE 8 12 - - 0.0 - - - - - - -
01/02:30am 13.6 NE 8 12 - - 0.0 - - - - - - -
01/02:00am 13.4 NE 6 9 - - 0.0 - - - - - - -
01/01:30am 13.2 NE 5 6 - - 0.0 - - - - - - -
01/01:00am 13.6 ENE 7 10 - - 0.0 - - - - - - -
01/12:30am 13.8 E 6 8 - - 0.0 - - - - - - -
01/12:00am 13.7 ENE 7 9 - - 0.0 - - - - - - -
 
Date/Time
CST
Temp

°C
Wind Pressure Rain
since 9am
mm
Weather Cloud Vis
km
Sea
Height
m
Swell
Dir
 
Speed
knots
Gust
knots
hPa Trend Height
m
Period
s
Dir
31/11:30pm 13.7 E 7 9 - - 0.0 - - - - - - -
31/11:00pm 13.4 ENE 8 12 - - 0.0 - - - - - - -
31/10:30pm 13.7 ENE 9 15 - - 0.0 - - - - - - -
31/10:00pm 13.6 ENE 9 13 - - 0.0 - - - - - - -
31/09:30pm 13.5 E 8 11 - - 0.0 - - - - - - -
31/09:00pm 13.8 E 7 11 - - 0.0 - - - - - - -
31/08:30pm 13.5 ENE 7 11 - - 0.0 - - - - - - -
31/08:00pm 13.3 ENE 6 8 - - 0.0 - - - - - - -
31/07:30pm 13.0 E 5 8 - - 0.0 - - - - - - -
31/07:00pm 13.2 ESE 3 4 - - 0.0 - - - - - - -
31/06:30pm 14.4 NNE 3 4 - - 0.0 - - - - - - -
31/06:00pm 15.6 NNE 1 2 - - 0.0 - - - - - - -
31/05:30pm 16.8 N 3 4 - - 0.0 - - - - - - -
31/05:00pm 17.2 NNW 4 6 - - 0.0 - - - - - - -
31/04:30pm 17.8 NNW 5 8 - - 0.0 - - - - - - -
31/04:00pm 17.6 N 6 9 - - 0.0 - - - - - - -
31/03:30pm 18.0 NNW 4 7 - - 0.0 - - - - - - -
31/03:00pm 17.8 NNW 6 9 - - 0.0 - - - - - - -
31/02:30pm 17.9 NNW 6 8 - - 0.0 - - - - - - -
31/02:00pm 18.2 NW 6 10 - - 0.0 - - - - - - -
31/01:30pm 17.7 NNW 6 10 - - 0.0 - - - - - - -
31/01:00pm 17.6 NNW 7 10 - - 0.0 - - - - - - -
31/12:30pm 17.0 NNW 7 10 - - 0.0 - - - - - - -
31/12:00pm 17.2 NNW 6 10 - - 0.0 - - - - - - -
31/11:30am 17.2 N 6 8 - - 0.0 - - - - - - -
31/11:00am 16.1 NNW 6 9 - - 0.0 - - - - - - -
31/10:30am 15.9 N 7 9 - - 0.0 - - - - - - -
31/10:00am 15.6 NNW 6 10 - - 0.0 - - - - - - -
31/09:30am 15.1 N 6 8 - - 0.0 - - - - - - -
31/09:00am 13.8 N 5 7 - - 0.0 - - - - - - -
31/08:30am 12.4 ENE 1 2 - - 0.0 - - - - - - -
31/08:00am 9.4 ESE 2 4 - - 0.0 - - - - - - -
31/07:30am 7.4 E 3 4 - - 0.0 - - - - - - -
31/07:00am 6.2 E 4 5 - - 0.0 - - - - - - -
31/06:30am 6.0 E 3 4 - - 0.0 - - - - - - -
31/06:00am 5.9 E 3 4 - - 0.0 - - - - - - -
31/05:30am 5.7 E 4 4 - - 0.0 - - - - - - -
31/05:00am 5.8 E 3 4 - - 0.0 - - - - - - -
31/04:30am 6.0 E 3 4 - - 0.0 - - - - - - -
31/04:00am 6.2 CALM 0 0 - - 0.0 - - - - - - -
31/03:30am 6.4 ENE 1 2 - - 0.0 - - - - - - -
31/03:00am 7.3 CALM 0 0 - - 0.0 - - - - - - -
31/02:30am 8.5 ENE 4 6 - - 0.0 - - - - - - -
31/02:00am 9.2 ENE 6 8 - - 0.0 - - - - - - -
31/01:30am 9.1 ENE 6 8 - - 0.0 - - - - - - -
31/01:00am 9.1 ENE 7 10 - - 0.0 - - - - - - -
31/12:30am 9.2 ENE 9 14 - - 0.0 - - - - - - -
31/12:00am 9.2 E 10 15 - - 0.0 - - - - - - -
 
Date/Time
CST
Temp

°C
Wind Pressure Rain
since 9am
mm
Weather Cloud Vis
km
Sea
Height
m
Swell
Dir
 
Speed
knots
Gust
knots
hPa Trend Height
m
Period
s
Dir
30/11:30pm 9.4 E 9 14 - - 0.0 - - - - - - -
30/11:00pm 9.7 E 9 14 - - 0.0 - - - - - - -
30/10:30pm 9.8 E 9 14 - - 0.0 - - - - - - -
30/10:00pm 10.1 E 8 12 - - 0.0 - - - - - - -
30/09:30pm 10.1 E 8 13 - - 0.0 - - - - - - -
30/09:00pm 10.3 E 7 12 - - 0.0 - - - - - - -
30/08:30pm 9.9 E 7 9 - - 0.0 - - - - - - -
30/08:00pm 9.8 E 8 11 - - 0.0 - - - - - - -
30/07:30pm 10.2 E 8 11 - - 0.0 - - - - - - -
30/07:00pm 10.2 E 6 8 - - 0.0 - - - - - - -
30/06:30pm 10.8 ESE 5 7 - - 0.0 - - - - - - -
30/06:00pm 11.4 SE 4 5 - - 0.0 - - - - - - -
30/05:30pm 13.3 SSW 2 3 - - 0.0 - - - - - - -
30/05:00pm 13.7 SW 3 4 - - 0.0 - - - - - - -
30/04:30pm 13.9 SW 4 7 - - 0.0 - - - - - - -
30/04:00pm 14.5 WSW 5 7 - - 0.0 - - - - - - -
30/03:30pm 14.7 WSW 5 8 - - 0.0 - - - - - - -
30/03:00pm 14.3 W 5 8 - - 0.0 - - - - - - -
30/02:30pm 14.4 WNW 4 6 - - 0.0 - - - - - - -
30/02:00pm 14.4 WSW 4 6 - - 0.0 - - - - - - -
30/01:30pm 14.7 W 6 9 - - 0.0 - - - - - - -
30/01:00pm 14.6 WNW 5 8 - - 0.0 - - - - - - -
30/12:30pm 14.5 W 5 7 - - 0.0 - - - - - - -
30/12:00pm 13.9 WNW 5 8 - - 0.0 - - - - - - -
30/11:30am 14.1 WNW 7 10 - - 0.0 - - - - - - -
30/11:00am 14.1 WSW 3 6 - - 0.0 - - - - - - -
30/10:30am 13.9 E 6 9 - - 0.0 - - - - - - -
30/10:00am 13.6 E 8 12 - - 0.0 - - - - - - -
30/09:30am 12.3 E 9 13 - - 0.0 - - - - - - -
30/09:00am 11.6 E 8 11 - - 0.0 - - - - - - -
30/08:30am 10.6 ENE 8 12 - - 0.0 - - - - - - -
30/08:00am 9.1 ENE 8 12 - - 0.0 - - - - - - -
30/07:30am 8.2 ENE 8 11 - - 0.0 - - - - - - -
30/07:00am 7.5 ENE 9 13 - - 0.0 - - - - - - -
30/06:30am 7.5 ENE 9 13 - - 0.0 - - - - - - -
30/06:00am 7.6 ENE 9 15 - - 0.0 - - - - - - -
30/05:30am 7.7 ENE 10 15 - - 0.0 - - - - - - -
30/05:00am 7.8 ENE 11 16 - - 0.0 - - - - - - -
30/04:30am 7.8 ENE 11 16 - - 0.0 - - - - - - -
30/04:00am 8.1 E 10 17 - - 0.0 - - - - - - -

Other Formats:

Comma delimited format used in spreadsheet applications
http://www.bom.gov.au/fwo/IDS60701/IDS60701.94808.axf

JavaScript Object Notation format (JSON) in row-major order
http://www.bom.gov.au/fwo/IDS60701/IDS60701.94808.json